Time;durP1;ratioP1;P1;durP2;ratioP2;P2;SDS_P1;SDS_P2;PMS_P1;PMS_P2;Temp;Humidity;BMP_temperature;BMP_pressure;BME280_temperature;BME280_humidity;BME280_pressure;Samples;Min_cycle;Max_cycle;Signal;HPM_P1;HPM_P2
2022/11/02 00:01:47;;;;;;;5.38;1.70;;;;;;;;;;7383398;19;20009;-79
2022/11/02 00:04:12;;;;;;;8.10;1.95;;;;;;;;;;7384330;19;20046;-78
2022/11/02 00:06:38;;;;;;;7.45;2.00;;;;;;;;;;7384769;19;20002;-79
2022/11/02 00:09:03;;;;;;;7.05;1.85;;;;;;;;;;7385227;19;20006;-78
2022/11/02 00:11:28;;;;;;;7.22;1.95;;;;;;;;;;7384091;19;19999;-78
2022/11/02 00:13:54;;;;;;;10.18;1.90;;;;;;;;;;7385182;19;19999;-79
2022/11/02 00:16:21;;;;;;;4.25;1.77;;;;;;;;;;7385313;19;20345;-79
2022/11/02 00:18:48;;;;;;;6.40;1.90;;;;;;;;;;7385983;19;19998;-80
2022/11/02 00:21:16;;;;;;;7.43;2.22;;;;;;;;;;7384195;19;20006;-79
2022/11/02 00:23:43;;;;;;;8.00;1.85;;;;;;;;;;7384128;19;20477;-79
2022/11/02 00:26:08;;;;;;;9.77;2.00;;;;;;;;;;7384425;19;20023;-79
2022/11/02 00:28:34;;;;;;;12.02;1.90;;;;;;;;;;7384629;19;20460;-78
2022/11/02 00:30:59;;;;;;;6.18;1.90;;;;;;;;;;7384454;19;20637;-79
2022/11/02 00:33:25;;;;;;;8.68;2.20;;;;;;;;;;7382542;19;20062;-78
2022/11/02 00:35:52;;;;;;;6.75;2.20;;;;;;;;;;7384671;19;20002;-79
2022/11/02 00:38:17;;;;;;;6.07;1.90;;;;;;;;;;7387556;19;20549;-79
2022/11/02 00:40:42;;;;;;;7.53;1.98;;;;;;;;;;7392645;19;20061;-77
2022/11/02 00:43:08;;;;;;;8.10;2.17;;;;;;;;;;7389742;19;19998;-78
2022/11/02 00:45:33;;;;;;;9.57;2.00;;;;;;;;;;7391939;19;20183;-78
2022/11/02 00:47:58;;;;;;;5.97;1.88;;;;;;;;;;7390848;19;20029;-78
2022/11/02 00:50:24;;;;;;;9.27;2.15;;;;;;;;;;7391608;19;20069;-78
2022/11/02 00:52:49;;;;;;;4.88;2.00;;;;;;;;;;7388824;19;19998;-78
2022/11/02 00:55:16;;;;;;;5.68;1.98;;;;;;;;;;7389736;19;19999;-79
2022/11/02 00:57:43;;;;;;;8.05;2.28;;;;;;;;;;7391539;19;20018;-78
2022/11/02 01:00:09;;;;;;;6.68;2.13;;;;;;;;;;7391874;19;20002;-78
2022/11/02 01:02:36;;;;;;;9.13;2.17;;;;;;;;;;7389189;19;20002;-79
2022/11/02 01:05:02;;;;;;;9.70;2.20;;;;;;;;;;7391176;19;20006;-78
2022/11/02 01:07:28;;;;;;;7.07;2.22;;;;;;;;;;7391646;19;20027;-78
2022/11/02 01:09:53;;;;;;;7.80;2.17;;;;;;;;;;7390696;19;20002;-78
2022/11/02 01:12:19;;;;;;;8.40;2.30;;;;;;;;;;7388867;19;20342;-79
2022/11/02 01:14:48;;;;;;;12.30;2.58;;;;;;;;;;7389861;19;20098;-79
2022/11/02 01:17:13;;;;;;;5.90;2.13;;;;;;;;;;7391144;19;20006;-78
2022/11/02 01:19:39;;;;;;;8.00;2.38;;;;;;;;;;7390784;19;20003;-79
2022/11/02 01:22:05;;;;;;;6.88;2.20;;;;;;;;;;7389435;19;20317;-79
2022/11/02 01:24:30;;;;;;;14.95;2.47;;;;;;;;;;7390630;19;20003;-78
2022/11/02 01:26:55;;;;;;;8.40;2.40;;;;;;;;;;7390673;19;20003;-78
2022/11/02 01:29:21;;;;;;;5.25;1.92;;;;;;;;;;7390985;19;20070;-79
2022/11/02 01:31:47;;;;;;;9.52;2.42;;;;;;;;;;7388026;19;20009;-78
2022/11/02 01:34:13;;;;;;;6.53;1.88;;;;;;;;;;7390432;19;20433;-78
2022/11/02 01:36:39;;;;;;;9.38;1.90;;;;;;;;;;7390412;19;20003;-78
2022/11/02 01:39:04;;;;;;;10.75;2.53;;;;;;;;;;7391465;19;20010;-79
2022/11/02 01:41:29;;;;;;;8.77;2.50;;;;;;;;;;7389944;19;20011;-78
2022/11/02 01:43:57;;;;;;;8.43;2.17;;;;;;;;;;7395231;19;20591;-78
2022/11/02 01:46:44;;;;;;;6.57;2.47;;;;;;;;;;7390642;19;19999;-78
2022/11/02 01:49:15;;;;;;;8.45;2.47;;;;;;;;;;7390451;19;20003;-79
2022/11/02 01:51:59;;;;;;;14.38;2.92;;;;;;;;;;7387273;19;20306;-78
2022/11/02 01:54:29;;;;;;;9.90;2.45;;;;;;;;;;7389261;19;19999;-79
2022/11/02 01:57:03;;;;;;;10.38;2.55;;;;;;;;;;7389915;19;20370;-78
2022/11/02 01:59:45;;;;;;;8.15;2.00;;;;;;;;;;7394218;19;20010;-79
2022/11/02 02:02:17;;;;;;;9.15;2.10;;;;;;;;;;7397885;19;20011;-79
2022/11/02 02:04:46;;;;;;;11.40;2.97;;;;;;;;;;7393478;19;20013;-76
2022/11/02 02:07:13;;;;;;;5.95;1.77;;;;;;;;;;7414180;19;20017;-78
2022/11/02 02:09:39;;;;;;;12.10;3.08;;;;;;;;;;7400376;19;20003;-78
2022/11/02 02:12:05;;;;;;;7.60;2.10;;;;;;;;;;7391765;19;20504;-78
2022/11/02 02:14:30;;;;;;;8.73;2.90;;;;;;;;;;7397161;19;20003;-79
2022/11/02 02:17:01;;;;;;;8.93;2.70;;;;;;;;;;7394779;19;19995;-76
2022/11/02 02:19:36;;;;;;;8.60;3.00;;;;;;;;;;7391762;19;20028;-78
2022/11/02 02:22:24;;;;;;;5.40;2.75;;;;;;;;;;7388419;19;20066;-77
2022/11/02 02:24:55;;;;;;;12.13;3.30;;;;;;;;;;7389138;19;20010;-78
2022/11/02 02:27:22;;;;;;;;;;;;;;;;;;7389745;19;20552;-78
2022/11/02 02:30:10;;;;;;;7.20;2.63;;;;;;;;;;7389452;19;19935;-79
2022/11/02 02:32:53;;;;;;;8.85;2.60;;;;;;;;;;7386900;19;20032;-79
2022/11/02 02:35:36;;;;;;;9.95;3.05;;;;;;;;;;7385976;19;20371;-78
2022/11/02 02:38:07;;;;;;;12.77;3.00;;;;;;;;;;7388759;19;20002;-78
2022/11/02 02:40:35;;;;;;;9.70;2.38;;;;;;;;;;7388718;19;20002;-79
2022/11/02 02:43:12;;;;;;;4.60;1.95;;;;;;;;;;7386651;19;20010;-77
2022/11/02 02:45:46;;;;;;;7.95;1.98;;;;;;;;;;7388840;19;20370;-77
2022/11/02 02:48:18;;;;;;;13.25;2.30;;;;;;;;;;7386309;19;20006;-78
2022/11/02 02:50:58;;;;;;;9.25;2.13;;;;;;;;;;7388839;19;20003;-77
2022/11/02 02:53:29;;;;;;;13.80;2.45;;;;;;;;;;7385594;19;20002;-77
2022/11/02 02:55:58;;;;;;;12.73;2.20;;;;;;;;;;7387239;19;20491;-76
2022/11/02 02:58:28;;;;;;;8.02;1.98;;;;;;;;;;7389426;19;20021;-78
2022/11/02 03:00:55;;;;;;;10.07;1.80;;;;;;;;;;7388371;19;19999;-78
2022/11/02 03:03:24;;;;;;;6.55;2.10;;;;;;;;;;7383736;19;20042;-78
2022/11/02 03:05:55;;;;;;;7.97;2.30;;;;;;;;;;7388261;19;20010;-79
2022/11/02 03:08:21;;;;;;;7.00;2.17;;;;;;;;;;7388021;19;20003;-78
2022/11/02 03:11:12;;;;;;;6.50;2.20;;;;;;;;;;7388390;19;20010;-78
2022/11/02 03:13:37;;;;;;;;;;;;;;;;;;7387300;19;20107;-78
2022/11/02 03:16:18;;;;;;;6.70;2.38;;;;;;;;;;7387084;19;19921;-78
2022/11/02 03:18:51;;;;;;;8.73;2.03;;;;;;;;;;7387441;19;20102;-78
2022/11/02 03:21:26;;;;;;;4.15;1.98;;;;;;;;;;7386242;19;20386;-78
2022/11/02 03:24:14;;;;;;;7.88;2.15;;;;;;;;;;7386664;19;20469;-77
2022/11/02 03:26:46;;;;;;;8.32;2.20;;;;;;;;;;7387426;19;19998;-78
2022/11/02 03:29:25;;;;;;;4.68;1.95;;;;;;;;;;7386721;19;20010;-78
2022/11/02 03:32:07;;;;;;;9.57;1.98;;;;;;;;;;7385885;19;20011;-78
2022/11/02 03:34:45;;;;;;;10.00;2.50;;;;;;;;;;7384523;19;20003;-78
2022/11/02 03:37:28;;;;;;;10.88;2.50;;;;;;;;;;7385316;19;20003;-78
2022/11/02 03:40:00;;;;;;;8.40;2.78;;;;;;;;;;7384903;19;20425;-78
2022/11/02 03:42:29;;;;;;;5.72;2.40;;;;;;;;;;7385539;19;20003;-77
2022/11/02 03:45:03;;;;;;;8.25;2.47;;;;;;;;;;7386835;19;20499;-78
2022/11/02 03:47:32;;;;;;;12.57;2.92;;;;;;;;;;7386974;19;20011;-77
2022/11/02 03:49:59;;;;;;;8.63;3.88;;;;;;;;;;7387061;19;20003;-78
2022/11/02 03:52:30;;;;;;;9.18;3.00;;;;;;;;;;7385122;19;20006;-78
2022/11/02 03:55:10;;;;;;;10.68;2.88;;;;;;;;;;7387097;19;20350;-79
2022/11/02 03:57:42;;;;;;;13.90;3.00;;;;;;;;;;7386904;19;20012;-76
2022/11/02 04:00:20;;;;;;;10.07;2.80;;;;;;;;;;7387452;19;19999;-78
2022/11/02 04:02:48;;;;;;;11.93;2.50;;;;;;;;;;7385491;19;20066;-78
2022/11/02 04:05:14;;;;;;;9.38;2.70;;;;;;;;;;7384782;19;20428;-77
2022/11/02 04:10:28;;;;;;;7.35;2.30;;;;;;;;;;7386979;19;20477;-78
2022/11/02 04:15:37;;;;;;;6.30;2.42;;;;;;;;;;7391771;19;20009;-76
2022/11/02 04:20:50;;;;;;;8.50;2.63;;;;;;;;;;7393658;19;20027;-77
2022/11/02 04:26:01;;;;;;;8.27;2.38;;;;;;;;;;7394405;19;20009;-78
2022/11/02 04:28:26;;;;;;;9.23;2.15;;;;;;;;;;7393012;19;20002;-79
2022/11/02 04:30:51;;;;;;;7.63;2.53;;;;;;;;;;7392661;19;20022;-78
2022/11/02 04:33:32;;;;;;;10.80;2.22;;;;;;;;;;7389202;19;20010;-78
2022/11/02 04:36:02;;;;;;;8.03;2.20;;;;;;;;;;7390162;19;20006;-78
2022/11/02 04:38:40;;;;;;;10.80;2.80;;;;;;;;;;7390008;19;20355;-77
2022/11/02 04:44:04;;;;;;;8.55;2.42;;;;;;;;;;7389538;19;20019;-78
2022/11/02 04:46:32;;;;;;;11.30;2.50;;;;;;;;;;7391857;19;20002;-79
2022/11/02 04:48:58;;;;;;;7.45;2.50;;;;;;;;;;7391445;19;20003;-78
2022/11/02 04:51:25;;;;;;;9.48;2.30;;;;;;;;;;7391300;19;20002;-78
2022/11/02 04:53:52;;;;;;;10.45;2.50;;;;;;;;;;7392121;19;20002;-78
2022/11/02 04:56:19;;;;;;;12.93;2.92;;;;;;;;;;7389938;19;20029;-77
2022/11/02 04:58:51;;;;;;;6.80;2.00;;;;;;;;;;7392038;19;20074;-79
2022/11/02 05:01:18;;;;;;;9.18;2.60;;;;;;;;;;7390794;19;20002;-77
2022/11/02 05:03:46;;;;;;;8.07;2.53;;;;;;;;;;7389573;19;20042;-78
2022/11/02 05:06:12;;;;;;;10.07;2.80;;;;;;;;;;7391903;19;19999;-77
2022/11/02 05:08:38;;;;;;;8.93;2.22;;;;;;;;;;7391588;19;20060;-77
2022/11/02 05:11:03;;;;;;;6.60;2.97;;;;;;;;;;7389440;19;20487;-78
2022/11/02 05:13:29;;;;;;;9.10;2.67;;;;;;;;;;7389449;19;20082;-78
2022/11/02 05:15:55;;;;;;;12.25;3.17;;;;;;;;;;7388639;19;20505;-80
2022/11/02 05:18:20;;;;;;;11.90;2.72;;;;;;;;;;7391457;19;20010;-77
2022/11/02 05:20:54;;;;;;;8.18;2.83;;;;;;;;;;7389169;19;20303;-78
2022/11/02 05:23:20;;;;;;;7.50;2.88;;;;;;;;;;7389022;19;20066;-79
2022/11/02 05:26:03;;;;;;;11.02;2.97;;;;;;;;;;7389385;19;20126;-78
2022/11/02 05:28:29;;;;;;;12.10;3.40;;;;;;;;;;7390961;19;20015;-77
2022/11/02 05:30:57;;;;;;;9.90;2.90;;;;;;;;;;7391413;19;20023;-79
2022/11/02 05:33:23;;;;;;;13.98;3.33;;;;;;;;;;7388102;19;20002;-77
2022/11/02 05:35:48;;;;;;;9.55;2.78;;;;;;;;;;7388884;19;20017;-79
2022/11/02 05:38:13;;;;;;;11.90;2.97;;;;;;;;;;7390683;19;20357;-77
2022/11/02 05:40:39;;;;;;;12.32;3.17;;;;;;;;;;7390623;19;20003;-79
2022/11/02 05:43:09;;;;;;;10.65;2.95;;;;;;;;;;7387815;19;20402;-78
2022/11/02 05:45:35;;;;;;;7.75;3.15;;;;;;;;;;7391110;19;20002;-81
2022/11/02 05:48:02;;;;;;;8.65;3.00;;;;;;;;;;7390428;19;20193;-78
2022/11/02 05:50:28;;;;;;;9.40;2.85;;;;;;;;;;7390728;19;20003;-77
2022/11/02 05:52:54;;;;;;;13.88;3.10;;;;;;;;;;7390645;19;20021;-78
2022/11/02 05:55:19;;;;;;;13.20;3.05;;;;;;;;;;7390517;19;20133;-77
2022/11/02 05:57:52;;;;;;;11.80;2.88;;;;;;;;;;7394278;19;20007;-79
2022/11/02 06:00:18;;;;;;;8.77;2.70;;;;;;;;;;7394127;19;20007;-77
2022/11/02 06:02:43;;;;;;;15.30;3.17;;;;;;;;;;7392762;19;20027;-79
2022/11/02 06:05:08;;;;;;;10.80;2.50;;;;;;;;;;7391212;19;20003;-78
2022/11/02 06:07:34;;;;;;;9.88;2.88;;;;;;;;;;7391457;19;20003;-78
2022/11/02 06:09:59;;;;;;;6.80;2.20;;;;;;;;;;7389732;19;20598;-77
2022/11/02 06:12:24;;;;;;;10.68;2.20;;;;;;;;;;7389595;19;19995;-77
2022/11/02 06:14:53;;;;;;;10.32;2.72;;;;;;;;;;7388724;19;20018;-80
2022/11/02 06:17:27;;;;;;;8.50;2.40;;;;;;;;;;7401783;19;20003;-79
2022/11/02 06:19:52;;;;;;;10.63;2.63;;;;;;;;;;7385264;19;20041;-80
2022/11/02 06:22:18;;;;;;;6.72;2.17;;;;;;;;;;7400263;19;20007;-78
2022/11/02 06:24:43;;;;;;;14.00;2.30;;;;;;;;;;7408680;19;20003;-78
2022/11/02 06:27:08;;;;;;;10.10;2.70;;;;;;;;;;7412127;19;20003;-80
2022/11/02 06:29:33;;;;;;;9.10;2.85;;;;;;;;;;7404483;19;20349;-79
2022/11/02 06:31:59;;;;;;;10.98;2.35;;;;;;;;;;7391237;19;20006;-79
2022/11/02 06:34:24;;;;;;;11.20;2.83;;;;;;;;;;7391303;19;19999;-78
2022/11/02 06:36:49;;;;;;;14.40;3.05;;;;;;;;;;7387241;19;20409;-79
2022/11/02 06:39:15;;;;;;;5.95;2.20;;;;;;;;;;7392937;19;20010;-78
2022/11/02 06:41:40;;;;;;;8.80;2.92;;;;;;;;;;7389533;19;20534;-79
2022/11/02 06:44:05;;;;;;;9.48;3.03;;;;;;;;;;7392761;19;20002;-78
2022/11/02 06:46:31;;;;;;;9.88;2.42;;;;;;;;;;7393724;19;19999;-80
2022/11/02 06:48:57;;;;;;;9.60;2.22;;;;;;;;;;7390299;19;20002;-80
2022/11/02 06:51:23;;;;;;;8.82;2.63;;;;;;;;;;7389678;19;19999;-80
2022/11/02 06:53:48;;;;;;;8.25;2.40;;;;;;;;;;7391105;19;20317;-79
2022/11/02 06:56:13;;;;;;;10.35;2.70;;;;;;;;;;7390390;19;20484;-79
2022/11/02 06:58:39;;;;;;;8.73;2.72;;;;;;;;;;7388999;19;20075;-79
2022/11/02 07:01:06;;;;;;;10.80;2.30;;;;;;;;;;7390075;19;20009;-79
2022/11/02 07:03:32;;;;;;;8.07;2.42;;;;;;;;;;7391486;19;19998;-79
2022/11/02 07:05:58;;;;;;;15.32;2.50;;;;;;;;;;7390320;19;20015;-79
2022/11/02 07:08:24;;;;;;;10.85;2.70;;;;;;;;;;7391541;19;19994;-77
2022/11/02 07:10:50;;;;;;;9.60;2.10;;;;;;;;;;7383064;19;20433;-81
2022/11/02 07:13:16;;;;;;;6.32;2.38;;;;;;;;;;7383523;19;20002;-77
2022/11/02 07:15:41;;;;;;;7.05;1.80;;;;;;;;;;7387694;19;19995;-77
2022/11/02 07:18:07;;;;;;;7.90;2.45;;;;;;;;;;7389591;19;20027;-75
2022/11/02 07:20:33;;;;;;;8.07;2.08;;;;;;;;;;7390898;19;20023;-77
2022/11/02 07:23:00;;;;;;;12.95;2.50;;;;;;;;;;7387823;19;20043;-76
2022/11/02 07:25:29;;;;;;;9.82;1.90;;;;;;;;;;7390497;19;20006;-76
2022/11/02 07:27:55;;;;;;;8.90;1.90;;;;;;;;;;7365978;19;20002;-75
2022/11/02 07:30:21;;;;;;;7.53;1.80;;;;;;;;;;7390395;19;20066;-75
2022/11/02 07:32:46;;;;;;;6.22;1.77;;;;;;;;;;7386738;19;20005;-73
2022/11/02 07:35:13;;;;;;;5.32;2.10;;;;;;;;;;7387677;19;20002;-75
2022/11/02 07:37:39;;;;;;;8.73;1.83;;;;;;;;;;7390281;19;20003;-75
2022/11/02 07:40:06;;;;;;;6.95;2.10;;;;;;;;;;7389384;19;20024;-74
2022/11/02 07:42:31;;;;;;;6.75;1.75;;;;;;;;;;7388204;19;20022;-72
2022/11/02 07:44:57;;;;;;;9.32;2.10;;;;;;;;;;7388532;19;19994;-72
2022/11/02 07:47:22;;;;;;;6.97;2.42;;;;;;;;;;7389182;19;20001;-72
2022/11/02 07:49:47;;;;;;;5.18;1.85;;;;;;;;;;7387066;19;20089;-72
2022/11/02 07:52:13;;;;;;;8.00;1.80;;;;;;;;;;7386984;19;19991;-73
2022/11/02 07:54:38;;;;;;;8.77;1.90;;;;;;;;;;7386699;19;20058;-73
2022/11/02 07:57:04;;;;;;;7.88;2.10;;;;;;;;;;7388629;19;20426;-71
2022/11/02 07:59:29;;;;;;;8.55;2.03;;;;;;;;;;7388515;19;20477;-73
2022/11/02 08:01:54;;;;;;;11.18;5.38;;;;;;;;;;7386143;19;20009;-73
2022/11/02 08:04:20;;;;;;;11.95;5.75;;;;;;;;;;7389868;19;20039;-73
2022/11/02 08:06:45;;;;;;;13.43;7.10;;;;;;;;;;7387930;19;20055;-77
2022/11/02 08:09:11;;;;;;;24.90;14.45;;;;;;;;;;7390700;19;20032;-72
2022/11/02 08:11:36;;;;;;;16.00;9.90;;;;;;;;;;7385951;19;20462;-74
2022/11/02 08:14:01;;;;;;;13.50;4.38;;;;;;;;;;7366542;19;19998;-73
2022/11/02 08:16:28;;;;;;;8.95;2.08;;;;;;;;;;7386983;19;19999;-72
2022/11/02 08:18:53;;;;;;;8.15;3.28;;;;;;;;;;7386222;19;20010;-72
2022/11/02 08:21:18;;;;;;;6.85;1.98;;;;;;;;;;7387827;19;19990;-71
2022/11/02 08:23:44;;;;;;;6.93;2.08;;;;;;;;;;7389111;19;20002;-71
2022/11/02 08:26:09;;;;;;;10.00;2.50;;;;;;;;;;7386853;19;20002;-70
2022/11/02 08:28:38;;;;;;;10.48;2.00;;;;;;;;;;7389697;19;20078;-72
2022/11/02 08:31:06;;;;;;;7.78;1.80;;;;;;;;;;7383597;19;20002;-74
2022/11/02 08:33:31;;;;;;;5.97;1.70;;;;;;;;;;7381759;19;20559;-75
2022/11/02 08:36:01;;;;;;;6.88;1.83;;;;;;;;;;7381996;19;20046;-75
2022/11/02 08:38:26;;;;;;;7.05;2.00;;;;;;;;;;7385672;19;20008;-74
2022/11/02 08:40:54;;;;;;;9.23;1.90;;;;;;;;;;7383713;19;20062;-73
2022/11/02 08:43:19;;;;;;;7.35;1.98;;;;;;;;;;7381425;19;19999;-73
2022/11/02 08:45:44;;;;;;;9.68;1.75;;;;;;;;;;7384066;19;21063;-74
2022/11/02 08:48:10;;;;;;;7.90;1.90;;;;;;;;;;7384399;19;20009;-74
2022/11/02 08:50:38;;;;;;;6.90;1.65;;;;;;;;;;7385076;19;20058;-75
2022/11/02 08:53:04;;;;;;;6.55;1.48;;;;;;;;;;7378785;19;20001;-74
2022/11/02 08:55:29;;;;;;;7.25;1.92;;;;;;;;;;7380304;19;20070;-74
2022/11/02 08:57:57;;;;;;;11.10;2.30;;;;;;;;;;7387378;19;19995;-75
2022/11/02 09:00:25;;;;;;;8.95;2.05;;;;;;;;;;7364299;19;20003;-74
2022/11/02 09:03:05;;;;;;;10.95;2.22;;;;;;;;;;7390401;19;20058;-73
2022/11/02 09:05:33;;;;;;;4.50;1.75;;;;;;;;;;7394112;19;20055;-74
2022/11/02 09:08:01;;;;;;;5.75;1.75;;;;;;;;;;7394815;19;20068;-74
2022/11/02 09:10:29;;;;;;;8.32;2.13;;;;;;;;;;7395393;19;19999;-75
2022/11/02 09:12:55;;;;;;;6.20;1.83;;;;;;;;;;7390527;19;20002;-75
2022/11/02 09:15:20;;;;;;;5.65;1.90;;;;;;;;;;7392596;19;20670;-74
2022/11/02 09:17:47;;;;;;;9.40;1.83;;;;;;;;;;7393827;19;19994;-75
2022/11/02 09:20:14;;;;;;;10.60;1.75;;;;;;;;;;7394607;19;19998;-75
2022/11/02 09:22:39;;;;;;;4.80;1.67;;;;;;;;;;7389535;19;20026;-75
2022/11/02 09:25:05;;;;;;;6.55;1.90;;;;;;;;;;7392812;19;20003;-74
2022/11/02 09:27:30;;;;;;;7.78;1.95;;;;;;;;;;7393287;19;19998;-74
2022/11/02 09:29:56;;;;;;;6.15;1.98;;;;;;;;;;7394441;19;20002;-75
2022/11/02 09:32:21;;;;;;;7.10;1.83;;;;;;;;;;7392942;19;20486;-75
2022/11/02 09:34:49;;;;;;;7.50;1.95;;;;;;;;;;7391031;19;19995;-74
2022/11/02 09:37:14;;;;;;;9.90;2.17;;;;;;;;;;7392060;19;19998;-75
2022/11/02 09:39:40;;;;;;;7.45;1.70;;;;;;;;;;7392766;19;19998;-75
2022/11/02 09:42:22;;;;;;;10.15;2.40;;;;;;;;;;7391259;19;20152;-75
2022/11/02 09:45:10;;;;;;;5.20;2.10;;;;;;;;;;7394049;19;20002;-75
2022/11/02 09:48:17;;;;;;;8.73;2.05;;;;;;;;;;7392290;19;20011;-73
2022/11/02 09:50:48;;;;;;;6.47;1.88;;;;;;;;;;7390046;19;20007;-74
2022/11/02 09:53:18;;;;;;;8.15;1.98;;;;;;;;;;7391338;19;20582;-75
2022/11/02 09:56:04;;;;;;;11.77;2.05;;;;;;;;;;7389766;19;19999;-75
2022/11/02 09:58:34;;;;;;;7.20;1.90;;;;;;;;;;7393236;19;19998;-75
2022/11/02 10:01:09;;;;;;;4.90;1.30;;;;;;;;;;7390650;19;19994;-75
2022/11/02 10:04:01;;;;;;;12.80;2.35;;;;;;;;;;7390216;19;20492;-75
2022/11/02 10:06:29;;;;;;;5.30;1.52;;;;;;;;;;7394804;19;20014;-75
2022/11/02 10:09:01;;;;;;;11.48;2.85;;;;;;;;;;7394143;19;19999;-75
2022/11/02 10:11:34;;;;;;;9.15;1.80;;;;;;;;;;7390524;19;20023;-75
2022/11/02 10:14:14;;;;;;;9.07;1.77;;;;;;;;;;7393074;19;20093;-75
2022/11/02 10:16:49;;;;;;;9.63;1.90;;;;;;;;;;7387861;19;20456;-74
2022/11/02 10:19:18;;;;;;;9.15;2.33;;;;;;;;;;7389540;19;20026;-75
2022/11/02 10:21:47;;;;;;;5.60;1.58;;;;;;;;;;7385932;19;20017;-75
2022/11/02 10:24:33;;;;;;;6.18;2.08;;;;;;;;;;7394024;19;20321;-75
2022/11/02 10:27:00;;;;;;;6.28;1.80;;;;;;;;;;7389981;19;20363;-74
2022/11/02 10:29:32;;;;;;;5.57;1.40;;;;;;;;;;7391997;19;20320;-75
2022/11/02 10:31:57;;;;;;;4.68;1.17;;;;;;;;;;7391963;19;19998;-75
2022/11/02 10:34:26;;;;;;;8.30;2.13;;;;;;;;;;7393223;19;20012;-75
2022/11/02 10:37:00;;;;;;;12.30;1.77;;;;;;;;;;7392071;19;20573;-76
2022/11/02 10:39:25;;;;;;;9.18;1.95;;;;;;;;;;7391585;19;20031;-76
2022/11/02 10:42:12;;;;;;;12.18;1.90;;;;;;;;;;7391941;19;20002;-76
2022/11/02 10:44:57;;;;;;;6.63;1.60;;;;;;;;;;7390374;19;20484;-75
2022/11/02 10:47:30;;;;;;;10.32;2.10;;;;;;;;;;7393753;19;19999;-74
2022/11/02 10:50:01;;;;;;;8.57;1.55;;;;;;;;;;7394747;19;20468;-73
2022/11/02 10:52:45;;;;;;;7.47;2.15;;;;;;;;;;7394081;19;20025;-73
2022/11/02 10:55:47;;;;;;;7.78;1.48;;;;;;;;;;7389685;19;20067;-74
2022/11/02 10:58:18;;;;;;;8.20;1.80;;;;;;;;;;7387092;19;20005;-74
2022/11/02 11:00:44;;;;;;;10.30;1.95;;;;;;;;;;7388957;19;19995;-74
2022/11/02 11:03:15;;;;;;;4.97;1.60;;;;;;;;;;7385620;19;20013;-75
2022/11/02 11:05:49;;;;;;;;;;;;;;;;;;7391440;19;20002;-75
2022/11/02 11:08:42;;;;;;;7.63;1.60;;;;;;;;;;7391264;19;19918;-74
2022/11/02 11:11:24;;;;;;;5.80;1.65;;;;;;;;;;7388496;19;20002;-74
2022/11/02 11:14:00;;;;;;;7.57;1.45;;;;;;;;;;7390894;19;20018;-74
2022/11/02 11:16:55;;;;;;;8.35;1.77;;;;;;;;;;7389895;19;20078;-75
2022/11/02 11:19:38;;;;;;;8.23;1.63;;;;;;;;;;7389261;19;20002;-74
2022/11/02 11:22:25;;;;;;;6.22;1.50;;;;;;;;;;7389798;19;19998;-74
2022/11/02 11:24:50;;;;;;;5.60;1.80;;;;;;;;;;7387218;19;20334;-75
2022/11/02 11:27:23;;;;;;;6.47;1.77;;;;;;;;;;7388649;19;20022;-74
2022/11/02 11:29:55;;;;;;;9.60;1.75;;;;;;;;;;7390341;19;20041;-75
2022/11/02 11:32:28;;;;;;;5.18;1.58;;;;;;;;;;7389532;19;20003;-74
2022/11/02 11:35:06;;;;;;;7.90;1.40;;;;;;;;;;7387819;19;20278;-75
2022/11/02 11:37:32;;;;;;;5.13;1.40;;;;;;;;;;7389184;19;20835;-74
2022/11/02 11:40:01;;;;;;;5.38;1.25;;;;;;;;;;7390191;19;19998;-73
2022/11/02 11:42:33;;;;;;;4.00;1.30;;;;;;;;;;7389115;19;20693;-74
2022/11/02 11:45:03;;;;;;;5.63;1.58;;;;;;;;;;7387923;19;20002;-75
2022/11/02 11:47:41;;;;;;;7.43;1.70;;;;;;;;;;7389525;19;20348;-73
2022/11/02 11:50:12;;;;;;;6.55;1.40;;;;;;;;;;7390089;19;19999;-74
2022/11/02 11:52:38;;;;;;;6.05;1.67;;;;;;;;;;7385073;19;20070;-75
2022/11/02 11:55:25;;;;;;;6.90;1.60;;;;;;;;;;7384984;19;20002;-73
2022/11/02 11:58:13;;;;;;;5.32;1.45;;;;;;;;;;7387518;19;19998;-74
2022/11/02 12:00:39;;;;;;;8.60;1.90;;;;;;;;;;7388220;19;20005;-74
2022/11/02 12:03:10;;;;;;;6.45;1.63;;;;;;;;;;7386703;19;19998;-74
2022/11/02 12:06:02;;;;;;;4.82;1.60;;;;;;;;;;7387884;19;20009;-75
2022/11/02 12:08:55;;;;;;;6.47;1.48;;;;;;;;;;7387451;19;19998;-74
2022/11/02 12:12:02;;;;;;;5.18;1.73;;;;;;;;;;7386617;19;20002;-75
2022/11/02 12:14:37;;;;;;;4.25;1.90;;;;;;;;;;7388990;19;19991;-74
2022/11/02 12:17:05;;;;;;;3.75;1.38;;;;;;;;;;7388858;19;20563;-73
2022/11/02 12:19:49;;;;;;;11.68;2.30;;;;;;;;;;7387976;19;20066;-74
2022/11/02 12:22:37;;;;;;;6.45;1.58;;;;;;;;;;7387492;19;20475;-74
2022/11/02 12:25:15;;;;;;;6.45;1.50;;;;;;;;;;7384164;19;19995;-73
2022/11/02 12:28:05;;;;;;;4.75;1.33;;;;;;;;;;7390167;19;20003;-74
2022/11/02 12:30:49;;;;;;;7.20;1.52;;;;;;;;;;7390586;19;20033;-75
2022/11/02 12:33:35;;;;;;;4.53;1.63;;;;;;;;;;7384855;19;20009;-75
2022/11/02 12:36:23;;;;;;;8.55;1.65;;;;;;;;;;7393698;19;20037;-75
2022/11/02 12:39:01;;;;;;;4.05;1.73;;;;;;;;;;7393985;19;20010;-73
2022/11/02 12:41:50;;;;;;;4.75;1.40;;;;;;;;;;7392711;19;20010;-74
2022/11/02 12:44:34;;;;;;;7.88;1.70;;;;;;;;;;7396334;19;20471;-74
2022/11/02 12:47:07;;;;;;;10.25;1.60;;;;;;;;;;7394154;19;20002;-73
2022/11/02 12:49:54;;;;;;;6.57;1.48;;;;;;;;;;7394905;19;20322;-74
2022/11/02 12:52:37;;;;;;;4.63;1.48;;;;;;;;;;7394017;19;19998;-75
2022/11/02 12:55:10;;;;;;;5.53;1.70;;;;;;;;;;7390556;19;19995;-74
2022/11/02 12:57:38;;;;;;;10.00;2.40;;;;;;;;;;7370670;19;20482;-74
2022/11/02 13:00:07;;;;;;;7.28;1.63;;;;;;;;;;7393948;19;19990;-75
2022/11/02 13:02:50;;;;;;;6.60;1.65;;;;;;;;;;7393913;19;19990;-73
2022/11/02 13:05:22;;;;;;;5.05;1.52;;;;;;;;;;7391998;19;20001;-74
2022/11/02 13:08:00;;;;;;;8.57;1.73;;;;;;;;;;7392139;19;20467;-74
2022/11/02 13:10:32;;;;;;;8.55;1.90;;;;;;;;;;7392751;19;20341;-73
2022/11/02 13:13:00;;;;;;;4.35;1.45;;;;;;;;;;7389776;19;20617;-75
2022/11/02 13:15:27;;;;;;;6.60;1.60;;;;;;;;;;7389994;19;20464;-75
2022/11/02 13:17:57;;;;;;;8.23;1.60;;;;;;;;;;7394001;19;20543;-75
2022/11/02 13:20:26;;;;;;;4.17;1.50;;;;;;;;;;7395614;19;20003;-74
2022/11/02 13:23:00;;;;;;;6.55;1.58;;;;;;;;;;7389737;19;20342;-73
2022/11/02 13:25:31;;;;;;;5.72;1.77;;;;;;;;;;7392977;19;20062;-75
2022/11/02 13:28:18;;;;;;;4.78;1.52;;;;;;;;;;7393816;19;20002;-72
2022/11/02 13:30:45;;;;;;;11.52;2.05;;;;;;;;;;7391576;19;20003;-73
2022/11/02 13:33:33;;;;;;;6.60;1.92;;;;;;;;;;7389798;19;20333;-74
2022/11/02 13:35:58;;;;;;;4.93;1.65;;;;;;;;;;7391090;19;20062;-74
2022/11/02 13:38:41;;;;;;;7.47;1.58;;;;;;;;;;7394615;19;20503;-74
2022/11/02 13:41:31;;;;;;;6.57;1.35;;;;;;;;;;7391281;19;20012;-75
2022/11/02 13:44:02;;;;;;;7.65;1.65;;;;;;;;;;7390034;19;20015;-74
2022/11/02 13:47:03;;;;;;;4.43;1.50;;;;;;;;;;7390457;19;20006;-74
2022/11/02 13:49:33;;;;;;;5.22;1.30;;;;;;;;;;7391443;19;20003;-75
2022/11/02 13:52:17;;;;;;;5.15;1.45;;;;;;;;;;7393467;19;20009;-75
2022/11/02 13:54:50;;;;;;;7.28;1.58;;;;;;;;;;7391670;19;20005;-74
2022/11/02 13:57:33;;;;;;;6.03;1.40;;;;;;;;;;7393887;19;20028;-74
2022/11/02 14:00:01;;;;;;;4.93;1.55;;;;;;;;;;7390719;19;20521;-74
2022/11/02 14:02:31;;;;;;;8.30;1.58;;;;;;;;;;7389972;19;20334;-75
2022/11/02 14:04:56;;;;;;;6.25;1.80;;;;;;;;;;7392319;19;20008;-74
2022/11/02 14:07:29;;;;;;;5.60;1.70;;;;;;;;;;7392761;19;20011;-74
2022/11/02 14:09:58;;;;;;;8.43;2.00;;;;;;;;;;7389828;19;20460;-74
2022/11/02 14:12:23;;;;;;;4.72;1.45;;;;;;;;;;7387760;19;19991;-74
2022/11/02 14:15:13;;;;;;;6.97;1.77;;;;;;;;;;7391411;19;19994;-75
2022/11/02 14:17:54;;;;;;;7.88;1.50;;;;;;;;;;7392761;19;19998;-74
2022/11/02 14:20:32;;;;;;;8.23;2.08;;;;;;;;;;7390874;19;20007;-73
2022/11/02 14:23:09;;;;;;;12.18;1.80;;;;;;;;;;7390080;19;20010;-74
2022/11/02 14:25:44;;;;;;;6.38;1.60;;;;;;;;;;7393095;19;20011;-74
2022/11/02 14:28:21;;;;;;;8.50;1.80;;;;;;;;;;7393063;19;20002;-73
2022/11/02 14:31:02;;;;;;;4.28;1.30;;;;;;;;;;7391711;19;20468;-74
2022/11/02 14:33:30;;;;;;;7.90;1.52;;;;;;;;;;7390723;19;19994;-75
2022/11/02 14:36:05;;;;;;;6.57;1.58;;;;;;;;;;7383803;19;20082;-74
2022/11/02 14:39:14;;;;;;;10.45;1.80;;;;;;;;;;7392375;19;20002;-75
2022/11/02 14:41:56;;;;;;;7.53;1.85;;;;;;;;;;7386786;19;20024;-74
2022/11/02 14:44:40;;;;;;;4.85;1.45;;;;;;;;;;7390283;19;20002;-74
2022/11/02 14:47:09;;;;;;;5.95;1.40;;;;;;;;;;7391643;19;20018;-75
2022/11/02 14:49:55;;;;;;;6.00;1.90;;;;;;;;;;7392280;19;19999;-73
2022/11/02 14:52:26;;;;;;;10.00;1.88;;;;;;;;;;7388580;19;20036;-74
2022/11/02 14:54:59;;;;;;;8.60;1.85;;;;;;;;;;7390795;19;19994;-74
2022/11/02 14:57:31;;;;;;;10.95;1.98;;;;;;;;;;7391969;19;20002;-75
2022/11/02 14:59:59;;;;;;;4.93;1.55;;;;;;;;;;7390366;19;19999;-74
2022/11/02 15:02:33;;;;;;;9.57;2.00;;;;;;;;;;7390434;19;20027;-73
2022/11/02 15:05:02;;;;;;;10.70;1.83;;;;;;;;;;7392365;19;20468;-75
2022/11/02 15:07:48;;;;;;;9.10;1.98;;;;;;;;;;7392912;19;20002;-74
2022/11/02 15:10:16;;;;;;;6.35;1.60;;;;;;;;;;7389593;19;20054;-74
2022/11/02 15:13:20;;;;;;;5.65;1.40;;;;;;;;;;7387364;19;20047;-74
2022/11/02 15:15:54;;;;;;;9.52;1.80;;;;;;;;;;7391654;19;20008;-75
2022/11/02 15:18:37;;;;;;;4.03;1.33;;;;;;;;;;7389463;19;19999;-75
2022/11/02 15:21:11;;;;;;;4.75;1.83;;;;;;;;;;7390090;19;20012;-74